createdAt,value
2023-06-27T00:01:17.468Z,49.50
2023-06-27T00:03:44.094Z,48.90
2023-06-27T00:06:10.610Z,49.30
2023-06-27T00:08:37.128Z,50.20
2023-06-27T00:11:03.672Z,49.10
2023-06-27T00:13:30.262Z,49.10
2023-06-27T00:15:56.820Z,49.00
2023-06-27T00:18:23.342Z,49.10
2023-06-27T00:20:49.865Z,48.80
2023-06-27T00:23:16.367Z,49.00
2023-06-27T00:25:42.865Z,48.90
2023-06-27T00:28:09.393Z,49.00
2023-06-27T00:30:35.930Z,48.70
2023-06-27T00:33:02.508Z,49.50
2023-06-27T00:35:29.087Z,49.40
2023-06-27T00:37:55.619Z,49.20
2023-06-27T00:42:49.196Z,49.10
2023-06-27T00:45:15.701Z,49.30
2023-06-27T00:47:42.268Z,49.30
2023-06-27T00:50:08.841Z,49.50
2023-06-27T00:52:35.324Z,49.10
2023-06-27T00:55:01.811Z,48.80
2023-06-27T00:57:28.321Z,49.30
2023-06-27T00:59:54.813Z,49.20
2023-06-27T01:02:21.329Z,48.90
2023-06-27T01:04:47.941Z,49.50
2023-06-27T01:07:14.515Z,49.40
2023-06-27T01:12:08.158Z,49.90
2023-06-27T01:14:34.645Z,49.90
2023-06-27T01:17:01.158Z,50.30
2023-06-27T01:19:27.644Z,49.80
2023-06-27T01:21:54.164Z,49.20
2023-06-27T01:24:20.703Z,49.90
2023-06-27T01:26:47.185Z,49.10
2023-06-27T01:29:13.681Z,49.10
2023-06-27T01:31:40.240Z,49.40
2023-06-27T01:34:06.777Z,49.30
2023-06-27T01:36:34.775Z,50.20
2023-06-27T01:41:29.465Z,50.10
2023-06-27T01:43:55.998Z,49.90
2023-06-27T01:46:22.552Z,49.40
2023-06-27T01:48:49.141Z,49.30
2023-06-27T01:51:15.660Z,49.70
2023-06-27T01:53:42.184Z,50.10
2023-06-27T01:58:35.775Z,49.30
2023-06-27T02:01:02.325Z,49.50
2023-06-27T02:03:28.867Z,49.50
2023-06-27T02:05:55.454Z,49.20
2023-06-27T02:08:21.945Z,49.10
2023-06-27T02:10:48.492Z,50.20
2023-06-27T02:13:15.026Z,49.00
2023-06-27T02:15:41.781Z,50.30
2023-06-27T02:20:35.598Z,49.40
2023-06-27T02:23:02.127Z,50.10
2023-06-27T02:25:28.637Z,49.40
2023-06-27T02:30:22.231Z,49.80
2023-06-27T02:32:48.892Z,49.40
2023-06-27T02:35:15.467Z,49.10
2023-06-27T02:37:41.970Z,49.40
2023-06-27T02:40:08.473Z,50.30
2023-06-27T02:42:34.995Z,50.00
2023-06-27T02:47:28.634Z,49.80
2023-06-27T02:49:55.160Z,49.80
2023-06-27T02:52:21.641Z,48.90
2023-06-27T02:54:48.152Z,49.80
2023-06-27T02:57:14.676Z,50.20
2023-06-27T02:59:41.181Z,49.40
2023-06-27T03:02:07.817Z,49.10
2023-06-27T03:11:55.617Z,49.30
2023-06-27T03:14:22.176Z,50.20
2023-06-27T03:16:48.684Z,49.50
2023-06-27T03:19:15.201Z,49.50
2023-06-27T03:21:41.699Z,49.90
2023-06-27T03:24:08.238Z,49.80
2023-06-27T03:26:34.745Z,49.50
2023-06-27T03:31:28.364Z,50.40
2023-06-27T03:33:54.938Z,50.20
2023-06-27T03:38:48.552Z,50.00
2023-06-27T03:41:15.033Z,49.50
2023-06-27T03:43:41.534Z,49.20
2023-06-27T03:48:35.098Z,49.70
2023-06-27T03:51:01.581Z,50.30
2023-06-27T03:55:55.105Z,49.50
2023-06-27T03:58:21.623Z,49.80
2023-06-27T04:00:48.150Z,50.10
2023-06-27T04:05:42.019Z,50.40
2023-06-27T04:08:11.420Z,49.50
2023-06-27T04:10:37.908Z,50.50
2023-06-27T04:13:04.437Z,49.50
2023-06-27T04:15:30.941Z,49.60
2023-06-27T04:17:57.484Z,49.70
2023-06-27T04:20:24.034Z,50.20
2023-06-27T04:22:50.558Z,50.10
2023-06-27T04:25:17.065Z,48.60
2023-06-27T04:27:43.589Z,44.70
2023-06-27T04:32:37.221Z,45.00
2023-06-27T04:35:03.743Z,45.20
2023-06-27T04:37:30.259Z,45.20
2023-06-27T04:39:56.802Z,45.20
2023-06-27T04:42:23.316Z,45.20
2023-06-27T04:44:49.798Z,45.10
2023-06-27T04:47:16.315Z,45.30
2023-06-27T04:52:09.824Z,45.20
2023-06-27T04:54:36.334Z,44.80
2023-06-27T04:59:32.210Z,44.70
2023-06-27T05:01:58.774Z,45.30
2023-06-27T05:06:52.500Z,46.30
2023-06-27T05:09:18.997Z,46.60
2023-06-27T05:11:45.515Z,46.50
2023-06-27T05:14:12.014Z,46.10
2023-06-27T05:16:38.533Z,45.90
2023-06-27T05:19:05.014Z,46.70
2023-06-27T05:21:31.656Z,46.90
2023-06-27T05:23:58.219Z,46.90
2023-06-27T05:26:24.720Z,46.00
2023-06-27T05:28:51.222Z,46.80
2023-06-27T05:31:17.858Z,46.90
2023-06-27T05:36:11.560Z,47.00
2023-06-27T05:38:38.075Z,47.30
2023-06-27T05:41:04.583Z,47.50
2023-06-27T05:45:58.139Z,47.70
2023-06-27T05:48:24.656Z,47.50
2023-06-27T05:50:51.145Z,47.70
2023-06-27T05:53:17.647Z,47.00
2023-06-27T05:55:44.164Z,47.70
2023-06-27T05:58:10.700Z,48.00
2023-06-27T06:00:37.213Z,48.20
2023-06-27T06:03:03.742Z,47.70
2023-06-27T06:05:30.272Z,47.30
2023-06-27T06:07:56.770Z,46.70
2023-06-27T06:10:23.320Z,47.20
2023-06-27T06:12:49.917Z,47.70
2023-06-27T06:15:18.876Z,48.50
2023-06-27T06:17:45.874Z,47.20
2023-06-27T06:20:12.447Z,47.30
2023-06-27T06:25:06.169Z,47.00
2023-06-27T06:27:32.712Z,47.30
2023-06-27T06:29:59.329Z,46.30
2023-06-27T06:32:25.919Z,46.50
2023-06-27T06:34:52.431Z,45.90
2023-06-27T06:37:18.947Z,46.70
2023-06-27T06:39:45.513Z,46.40
2023-06-27T06:42:12.059Z,46.80
2023-06-27T06:44:38.571Z,46.60
2023-06-27T06:47:05.109Z,46.50
2023-06-27T06:49:31.617Z,47.30
2023-06-27T06:54:25.153Z,45.80
2023-06-27T06:56:51.661Z,46.30
2023-06-27T06:59:18.167Z,44.50
2023-06-27T07:01:44.775Z,44.30
2023-06-27T07:04:11.453Z,44.10
2023-06-27T07:06:37.986Z,44.80
2023-06-27T07:09:04.517Z,44.60
2023-06-27T07:13:58.087Z,44.90
2023-06-27T07:16:24.595Z,45.30
2023-06-27T07:21:18.216Z,45.00
2023-06-27T07:23:44.757Z,44.30
2023-06-27T07:26:11.256Z,44.40
2023-06-27T07:28:37.749Z,43.40
2023-06-27T07:31:04.322Z,44.30
2023-06-27T07:33:30.860Z,44.30
2023-06-27T07:35:57.361Z,44.30
2023-06-27T07:38:23.858Z,44.90
2023-06-27T07:40:50.788Z,44.20
2023-06-27T07:43:18.168Z,44.90
2023-06-27T07:48:11.782Z,44.50
2023-06-27T07:50:38.519Z,44.00
2023-06-27T07:53:05.203Z,42.90
2023-06-27T07:55:31.694Z,43.40
2023-06-27T07:57:58.315Z,44.00
2023-06-27T08:00:24.908Z,44.20
2023-06-27T08:05:18.611Z,42.60
2023-06-27T08:10:12.339Z,43.00
2023-06-27T08:12:38.835Z,43.90
2023-06-27T08:15:05.345Z,43.20
2023-06-27T08:19:59.060Z,42.60
2023-06-27T08:22:25.566Z,43.20
2023-06-27T08:24:52.115Z,42.70
2023-06-27T08:27:18.610Z,42.80
2023-06-27T08:29:45.145Z,42.90
2023-06-27T08:32:11.672Z,42.60
2023-06-27T08:34:38.202Z,42.90
2023-06-27T08:39:31.793Z,41.80
2023-06-27T08:41:58.317Z,41.90
2023-06-27T08:46:51.893Z,42.60
2023-06-27T08:49:18.396Z,42.50
2023-06-27T08:51:44.894Z,42.70
2023-06-27T08:54:11.440Z,42.40
2023-06-27T08:56:37.998Z,41.30
2023-06-27T08:59:04.526Z,42.10
2023-06-27T09:01:31.052Z,41.90
2023-06-27T09:03:57.722Z,42.20
2023-06-27T09:06:24.322Z,42.30
2023-06-27T09:08:50.804Z,42.50
2023-06-27T09:11:17.276Z,42.50
2023-06-27T09:16:10.874Z,41.40
2023-06-27T09:18:37.460Z,41.70
2023-06-27T09:21:03.950Z,42.20
2023-06-27T09:23:30.503Z,42.50
2023-06-27T09:28:24.045Z,42.50
2023-06-27T09:30:50.532Z,41.60
2023-06-27T09:33:17.036Z,42.40
2023-06-27T09:36:00.085Z,42.90
2023-06-27T09:40:57.540Z,42.40
2023-06-27T09:45:51.112Z,42.60
2023-06-27T09:48:17.667Z,43.20
2023-06-27T09:50:44.206Z,42.90
2023-06-27T09:53:10.759Z,42.70
2023-06-27T09:55:37.230Z,43.00
2023-06-27T09:58:03.754Z,42.70
2023-06-27T10:00:30.461Z,43.20
2023-06-27T10:02:57.256Z,41.80
2023-06-27T10:05:23.955Z,42.00
2023-06-27T10:10:17.733Z,41.70
2023-06-27T10:12:44.279Z,41.40
2023-06-27T10:15:10.803Z,41.50
2023-06-27T10:17:37.363Z,40.90
2023-06-27T10:20:03.877Z,40.50
2023-06-27T10:22:30.387Z,41.20
2023-06-27T10:24:56.946Z,41.20
2023-06-27T10:29:50.536Z,40.90
2023-06-27T10:32:17.052Z,41.00
2023-06-27T10:34:43.588Z,40.60
2023-06-27T10:39:37.197Z,41.30
2023-06-27T10:42:03.687Z,40.70
2023-06-27T10:46:57.217Z,40.50
2023-06-27T10:49:23.742Z,41.10
2023-06-27T10:54:17.344Z,41.00
2023-06-27T10:59:10.950Z,41.20
2023-06-27T11:01:37.466Z,42.20
2023-06-27T11:04:04.234Z,41.20
2023-06-27T11:06:30.866Z,41.10
2023-06-27T11:08:57.404Z,40.90
2023-06-27T11:11:23.947Z,40.70
2023-06-27T11:13:50.491Z,41.10
2023-06-27T11:16:17.007Z,41.00
2023-06-27T11:21:14.280Z,41.50
2023-06-27T11:23:41.571Z,41.70
2023-06-27T11:28:35.172Z,41.70
2023-06-27T11:31:01.862Z,41.40
2023-06-27T11:35:55.489Z,41.40
2023-06-27T11:38:23.119Z,41.60
2023-06-27T11:40:50.995Z,42.60
2023-06-27T11:43:17.533Z,42.20
2023-06-27T11:45:44.043Z,42.90
2023-06-27T11:48:10.627Z,42.30
2023-06-27T11:50:37.218Z,42.30
2023-06-27T11:53:03.747Z,42.60
2023-06-27T11:55:30.282Z,41.00
2023-06-27T11:57:56.841Z,43.00
2023-06-27T12:02:53.033Z,42.00
2023-06-27T12:05:19.602Z,41.60
2023-06-27T12:10:13.182Z,42.30
2023-06-27T12:12:39.741Z,42.20
2023-06-27T12:15:06.280Z,42.20
2023-06-27T12:17:32.800Z,41.90
2023-06-27T12:19:59.317Z,42.80
2023-06-27T12:22:25.805Z,41.80
2023-06-27T12:24:52.307Z,41.80
2023-06-27T12:27:18.778Z,41.80
2023-06-27T12:29:45.286Z,41.90
2023-06-27T12:32:11.802Z,41.80
2023-06-27T12:34:38.304Z,42.10
2023-06-27T12:37:04.809Z,42.10
2023-06-27T12:39:31.306Z,43.10
2023-06-27T12:41:57.821Z,42.70
2023-06-27T12:44:24.387Z,42.20
2023-06-27T12:46:50.913Z,42.50
2023-06-27T12:49:17.480Z,41.70
2023-06-27T12:51:44.043Z,42.20
2023-06-27T12:54:10.553Z,42.20
2023-06-27T12:56:37.060Z,41.70
2023-06-27T12:59:03.570Z,42.00
2023-06-27T13:03:57.349Z,41.70
2023-06-27T13:06:23.907Z,41.10
2023-06-27T13:11:17.508Z,41.50
2023-06-27T13:13:44.057Z,41.50
2023-06-27T13:16:15.872Z,40.50
2023-06-27T13:18:43.332Z,40.90
2023-06-27T13:21:09.894Z,41.30
2023-06-27T13:23:36.469Z,41.70
2023-06-27T13:26:02.971Z,39.30
2023-06-27T13:30:56.632Z,41.60
2023-06-27T13:33:23.223Z,41.70
2023-06-27T13:35:49.760Z,42.10
2023-06-27T13:38:16.285Z,42.10
2023-06-27T13:40:43.078Z,43.00
2023-06-27T13:43:09.710Z,42.30
2023-06-27T13:45:36.243Z,42.50
2023-06-27T13:48:02.786Z,43.10
2023-06-27T13:50:29.352Z,44.30
2023-06-27T13:52:55.850Z,43.20
2023-06-27T13:55:22.369Z,43.40
2023-06-27T14:00:15.909Z,43.80
2023-06-27T14:02:42.524Z,43.70
2023-06-27T14:05:09.150Z,44.00
2023-06-27T14:07:35.754Z,44.30
2023-06-27T14:10:02.286Z,44.40
2023-06-27T14:12:28.783Z,44.30
2023-06-27T14:14:55.303Z,44.30
2023-06-27T14:19:48.895Z,44.50
2023-06-27T14:22:15.393Z,44.90
2023-06-27T14:27:08.949Z,44.50
2023-06-27T14:29:35.485Z,44.60
2023-06-27T14:32:02.013Z,45.60
2023-06-27T14:36:55.602Z,44.80
2023-06-27T14:39:22.100Z,46.00
2023-06-27T14:44:15.668Z,44.90
2023-06-27T14:46:42.185Z,45.10
2023-06-27T14:49:08.702Z,46.00
2023-06-27T14:51:35.214Z,44.60
2023-06-27T14:54:01.725Z,46.00
2023-06-27T14:56:28.222Z,45.20
2023-06-27T14:58:54.728Z,45.10
2023-06-27T15:01:21.280Z,45.40
2023-06-27T15:03:48.002Z,45.60
2023-06-27T15:11:08.707Z,45.50
2023-06-27T15:13:35.244Z,46.10
2023-06-27T15:16:01.754Z,46.40
2023-06-27T15:18:28.281Z,45.40
2023-06-27T15:20:54.802Z,45.70
2023-06-27T15:23:33.277Z,45.60
2023-06-27T15:26:03.617Z,45.60
2023-06-27T15:28:30.140Z,45.30
2023-06-27T15:33:23.724Z,45.80
2023-06-27T15:35:50.245Z,46.30
2023-06-27T15:38:16.774Z,46.60
2023-06-27T15:40:43.541Z,45.50
2023-06-27T15:43:10.272Z,45.70
2023-06-27T15:45:36.788Z,46.00
2023-06-27T15:48:03.409Z,45.30
2023-06-27T15:50:29.979Z,45.90
2023-06-27T15:52:56.513Z,45.70
2023-06-27T15:55:23.173Z,45.80
2023-06-27T15:57:49.664Z,45.60
2023-06-27T16:02:43.385Z,45.70
2023-06-27T16:05:10.251Z,45.80
2023-06-27T16:07:37.026Z,46.10
2023-06-27T16:10:03.560Z,46.10
2023-06-27T16:12:30.087Z,46.10
2023-06-27T16:14:56.627Z,45.90
2023-06-27T16:17:23.227Z,46.80
2023-06-27T16:19:49.817Z,45.90
2023-06-27T16:22:16.364Z,47.00
2023-06-27T16:24:42.901Z,46.50
2023-06-27T16:27:09.422Z,46.30
2023-06-27T16:29:35.977Z,46.20
2023-06-27T16:32:02.564Z,47.40
2023-06-27T16:34:29.137Z,47.30
2023-06-27T16:36:55.654Z,46.20
2023-06-27T16:39:22.183Z,46.80
2023-06-27T16:41:48.682Z,46.70
2023-06-27T16:44:15.206Z,46.70
2023-06-27T16:46:41.717Z,46.70
2023-06-27T16:49:08.232Z,46.90
2023-06-27T16:51:34.771Z,46.70
2023-06-27T16:54:01.296Z,46.60
2023-06-27T16:56:27.831Z,46.80
2023-06-27T16:58:54.335Z,46.90
2023-06-27T17:01:20.824Z,46.40
2023-06-27T17:03:47.381Z,46.70
2023-06-27T17:06:13.985Z,46.40
2023-06-27T17:08:40.503Z,47.40
2023-06-27T17:11:07.008Z,46.50
2023-06-27T17:13:33.528Z,47.40
2023-06-27T17:16:00.069Z,46.70
2023-06-27T17:18:26.619Z,47.00
2023-06-27T17:20:53.210Z,46.40
2023-06-27T17:23:19.729Z,47.80
2023-06-27T17:25:46.272Z,47.60
2023-06-27T17:28:12.778Z,47.50
2023-06-27T17:30:39.358Z,46.90
2023-06-27T17:33:05.941Z,46.70
2023-06-27T17:35:32.587Z,46.80
2023-06-27T17:40:26.172Z,46.70
2023-06-27T17:42:52.672Z,46.50
2023-06-27T17:45:19.217Z,46.90
2023-06-27T17:47:45.778Z,47.90
2023-06-27T17:50:12.307Z,47.00
2023-06-27T17:55:05.925Z,46.80
2023-06-27T17:57:32.414Z,47.10
2023-06-27T17:59:58.976Z,47.90
2023-06-27T18:04:52.603Z,48.00
2023-06-27T18:07:32.582Z,47.10
2023-06-27T18:10:03.488Z,47.20
2023-06-27T18:14:57.071Z,46.70
2023-06-27T18:17:23.641Z,48.40
2023-06-27T18:19:50.187Z,47.10
2023-06-27T18:22:16.722Z,47.60
2023-06-27T18:24:43.261Z,48.60
2023-06-27T18:27:09.834Z,47.60
2023-06-27T18:29:36.362Z,47.90
2023-06-27T18:32:02.894Z,47.70
2023-06-27T18:34:29.426Z,47.70
2023-06-27T18:36:55.932Z,47.90
2023-06-27T18:39:22.497Z,47.70
2023-06-27T18:41:49.020Z,47.90
2023-06-27T18:46:42.636Z,47.30
2023-06-27T18:49:09.174Z,47.60
2023-06-27T18:51:35.789Z,47.30
2023-06-27T18:54:02.306Z,47.00
2023-06-27T18:56:28.807Z,47.40
2023-06-27T18:58:55.339Z,47.10
2023-06-27T19:01:21.902Z,47.50
2023-06-27T19:06:15.554Z,47.60
2023-06-27T19:08:42.063Z,47.50
2023-06-27T19:13:35.698Z,47.70
2023-06-27T19:16:02.257Z,47.80
2023-06-27T19:18:29.307Z,48.10
2023-06-27T19:20:56.334Z,47.60
2023-06-27T19:23:23.380Z,47.90
2023-06-27T19:25:49.924Z,48.20
2023-06-27T19:28:16.448Z,48.10
2023-06-27T19:30:43.239Z,47.80
2023-06-27T19:33:09.961Z,47.40
2023-06-27T19:35:36.532Z,47.20
2023-06-27T19:38:03.046Z,47.20
2023-06-27T19:40:29.630Z,46.70
2023-06-27T19:42:56.143Z,46.20
2023-06-27T19:45:22.669Z,45.50
2023-06-27T19:47:49.230Z,45.70
2023-06-27T19:50:15.794Z,45.60
2023-06-27T20:00:03.821Z,45.90
2023-06-27T20:02:30.400Z,46.70
2023-06-27T20:07:24.091Z,46.80
2023-06-27T20:09:50.647Z,47.20
2023-06-27T20:12:17.140Z,47.10
2023-06-27T20:14:43.692Z,46.70
2023-06-27T20:17:10.200Z,46.60
2023-06-27T20:19:36.781Z,47.50
2023-06-27T20:22:03.289Z,47.20
2023-06-27T20:26:56.851Z,47.20
2023-06-27T20:29:23.379Z,48.10
2023-06-27T20:31:49.907Z,47.50
2023-06-27T20:34:16.425Z,47.20
2023-06-27T20:36:42.942Z,47.40
2023-06-27T20:39:09.443Z,47.90
2023-06-27T20:41:35.956Z,47.40
2023-06-27T20:44:02.470Z,47.60
2023-06-27T20:46:29.019Z,48.00
2023-06-27T20:48:55.544Z,47.40
2023-06-27T20:51:22.099Z,47.40
2023-06-27T20:53:48.741Z,48.60
2023-06-27T20:56:15.266Z,47.40
2023-06-27T20:58:41.812Z,47.80
2023-06-27T21:01:08.336Z,47.80
2023-06-27T21:03:34.948Z,48.50
2023-06-27T21:08:28.669Z,48.30
2023-06-27T21:10:55.240Z,47.20
2023-06-27T21:15:48.921Z,47.30
2023-06-27T21:18:15.469Z,47.60
2023-06-27T21:20:42.201Z,48.00
2023-06-27T21:23:08.970Z,47.20
2023-06-27T21:25:35.597Z,48.20
2023-06-27T21:28:02.119Z,48.10
2023-06-27T21:30:28.638Z,47.80
2023-06-27T21:32:55.245Z,47.70
2023-06-27T21:35:21.897Z,47.60
2023-06-27T21:37:48.425Z,48.00
2023-06-27T21:40:14.948Z,47.70
2023-06-27T21:42:41.467Z,47.50
2023-06-27T21:45:08.060Z,47.70
2023-06-27T21:47:34.644Z,48.60
2023-06-27T21:50:01.194Z,47.70
2023-06-27T21:54:54.848Z,47.80
2023-06-27T21:57:21.369Z,47.70
2023-06-27T21:59:47.910Z,48.00
2023-06-27T22:02:14.431Z,48.40
2023-06-27T22:04:41.144Z,47.80
2023-06-27T22:07:08.028Z,48.30
2023-06-27T22:12:01.848Z,48.30
2023-06-27T22:14:28.468Z,48.30
2023-06-27T22:16:55.123Z,48.10
2023-06-27T22:19:21.762Z,48.30
2023-06-27T22:21:48.324Z,48.30
2023-06-27T22:26:41.993Z,48.30
2023-06-27T22:29:08.585Z,48.70
2023-06-27T22:31:35.136Z,48.10
2023-06-27T22:34:01.672Z,48.20
2023-06-27T22:36:28.319Z,48.40
2023-06-27T22:38:54.821Z,49.20
2023-06-27T22:41:21.350Z,47.80
2023-06-27T22:43:47.880Z,48.40
2023-06-27T22:46:14.520Z,48.10
2023-06-27T22:48:41.176Z,48.50
2023-06-27T22:51:07.749Z,48.20
2023-06-27T22:56:01.403Z,48.50
2023-06-27T22:58:28.023Z,48.20
2023-06-27T23:03:21.700Z,48.10
2023-06-27T23:05:48.241Z,49.20
2023-06-27T23:08:14.769Z,48.00
2023-06-27T23:10:41.610Z,48.10
2023-06-27T23:13:08.406Z,48.50
2023-06-27T23:15:34.905Z,48.40
2023-06-27T23:20:28.608Z,49.20
2023-06-27T23:22:55.164Z,49.30
2023-06-27T23:25:21.725Z,48.20
2023-06-27T23:27:48.320Z,48.90
2023-06-27T23:30:14.883Z,48.30
2023-06-27T23:32:41.420Z,49.20
2023-06-27T23:35:07.993Z,49.20
2023-06-27T23:40:01.701Z,49.30
2023-06-27T23:42:28.197Z,49.20
2023-06-27T23:44:54.725Z,48.60
2023-06-27T23:47:21.257Z,48.60
2023-06-27T23:49:47.832Z,48.70
2023-06-27T23:52:14.359Z,49.20
2023-06-27T23:54:41.033Z,49.40
2023-06-27T23:57:07.559Z,48.30
2023-06-27T23:59:34.085Z,48.70
